Albany, NY (12205)

1:42 PM EST on December 05, 2016 (GMT -0500)
South Colonie - Cook Park Area | | Change Station

Elev 318 ft 42.71 °N, 73.84 °W | Updated 21 seconds ago

Overcast
Overcast
40.1 °F
Feels Like 40 °F
N
0.0
Wind Variable Wind from ESE

Today
High -- | Low -- °F
--% Chance of Precip.
Yesterday
High -- | Low -- °F
Precip. -- in
Pressure 29.92 in
Visibility 10.0 miles
Clouds Few 1200 ft
Scattered Clouds 3500 ft
Overcast 5500 ft
Windchill 40 °F
Dew Point 35 °F
Humidity 81%
Rainfall 0.05 in
Snow Depth Not available.
7:10 AM 4:21 PM
Waxing Crescent, 34% visible
METAR KALB 051751Z 18006KT 10SM FEW012 SCT035 OVC055 03/01 A2991 RMK AO2 SLP131 BINOVC 60004 T00330006 10033 21017 55008
Pressure 29.92 in
Visibility 10.0 miles
Clouds Few 1200 ft
Scattered Clouds 3500 ft
Overcast 5500 ft
Windchill 40 °F
Dew Point 35 °F
Humidity 81%
Rainfall 0.05 in
Snow Depth Not available.
7:10 AM 4:21 PM
Waxing Crescent, 34% visible
METAR KALB 051751Z 18006KT 10SM FEW012 SCT035 OVC055 03/01 A2991 RMK AO2 SLP131 BINOVC 60004 T00330006 10033 21017 55008

10-Day Weather Forecast

Almanac

Astronomy

Dec. 05, 2016 Rise Set
Actual Time
Civil Twilight
Nautical Twilight
Astronomical Twilight
Moon
Length of Visible Light
Length of Day
Tomorrow will be .
, % of the Moon is Illuminated

Today's Extremes

State Highs State Lows

Community

WunderPhotos

Upload Photos

1,955,851 photos uploaded!

WunderBlog® & News

Nearby

Air Quality

  Air Quality AQ Index Pollutant
Not available.

Snow Depth

Station Depth Elevation

Earthquake Activity

City Distance Mag. Time & Date
Minimum magnitude displayed is 2.5.

Coastal Water Temperatures

Place Temperature

Stations

Nearby Weather Stations

Station Location Temp. Windchill Dew Point Humidity Wind Precip. Elev Updated Type
                   

Watches & Warnings

There are currently no watches in effect.